West Bay, Cayman Islands

10:54 AM EST on September 04, 2015 (GMT -0500)
Bruces by the sea | | Change Station
CLOSE
Current Station
Personal Weather Station
Location: West Bay, Grand Cayman Island
Elevation: 25 ft
Nearby Weather Stations

Elev 25 ft 19.39 °N, 81.41 °W | Updated 38 seconds ago

Scattered Clouds
Scattered Clouds
88.5 °F
Feels Like 103 °F
N
0.4
Wind Variable Wind from East
Gusts 2.5 mph

Today
High -- | Low -- °F
--% Chance of Precip.
Yesterday
High -- | Low -- °F
Precip. -- in
6:11 AM 6:38 PM
Waning Gibbous, 58% visible
Pressure 29.98 in
Visibility 6.2 miles
Clouds Scattered Clouds 1800 ft
Heat Index 103 °F
Dew Point 78.4 °F
Humidity 72%
Rainfall 0.00 in
Snow Depth Not available.
UV 2.0 out of 12
Pollen Not available.
Air Quality Not available.
Flu Activity Not available.
METAR MWCR 041600Z 14006KT 110V210 9999 SCT018 32/26 Q1015 NOSIG
Pressure 29.98 in
Visibility 6.2 miles
Clouds Scattered Clouds 1800 ft
Heat Index 103 °F
Dew Point 78.4 °F
Humidity 72%
Rainfall 0.00 in
Snow Depth Not available.
UV 2.0 out of 12
Pollen Not available.
Air Quality Not available.
Flu Activity Not available.
METAR MWCR 041600Z 14006KT 110V210 9999 SCT018 32/26 Q1015 NOSIG

10-Day Weather Forecast

×

Almanac

Astronomy

Sep. 04, 2015 Rise Set
Actual Time
Civil Twilight
Nautical Twilight
Astronomical Twilight
Moon
Length of Visible Light
Length of Day
Tomorrow will be .
, % of the Moon is Illuminated

Today's Extremes

Country Highs Country Lows

Community

WunderPhotos

Upload Photos

1,852,197 photos uploaded!

WunderBlogs® & News

Nearby

Air Quality

  Air Quality AQ Index Pollutant
Not available.

Snow Depth

Station Depth Elevation

Earthquake Activity

City Distance Mag. Time & Date
Minimum magnitude displayed is 2.5.

Coastal Water Temperatures

Place Temperature

Stations

Nearby Weather Stations

Station Location Temp. Windchill Dew Point Humidity Wind Precip. Elev Updated Type